sensor_id;sensor_type;location;lat;lon;timestamp;temperature;humidity
52058;DHT22;38063;53.210;6.504;2023-06-22T00:00:43;17.90;99.90
52058;DHT22;38063;53.210;6.504;2023-06-22T00:03:10;17.90;99.90
52058;DHT22;38063;53.210;6.504;2023-06-22T00:05:35;17.90;99.90
52058;DHT22;38063;53.210;6.504;2023-06-22T00:08:04;17.80;99.90
52058;DHT22;38063;53.210;6.504;2023-06-22T00:10:30;17.80;99.90
52058;DHT22;38063;53.210;6.504;2023-06-22T00:12:56;17.80;99.90
52058;DHT22;38063;53.210;6.504;2023-06-22T00:15:22;17.70;99.90
52058;DHT22;38063;53.210;6.504;2023-06-22T00:17:49;17.70;99.90
52058;DHT22;38063;53.210;6.504;2023-06-22T00:20:14;17.70;99.90
52058;DHT22;38063;53.210;6.504;2023-06-22T00:22:40;17.70;99.90
52058;DHT22;38063;53.210;6.504;2023-06-22T00:25:07;17.70;99.90
52058;DHT22;38063;53.210;6.504;2023-06-22T00:27:33;17.60;99.90
52058;DHT22;38063;53.210;6.504;2023-06-22T00:29:58;17.60;99.90
52058;DHT22;38063;53.210;6.504;2023-06-22T00:32:24;17.60;99.90
52058;DHT22;38063;53.210;6.504;2023-06-22T00:34:49;17.40;99.90
52058;DHT22;38063;53.210;6.504;2023-06-22T00:37:16;17.60;99.90
52058;DHT22;38063;53.210;6.504;2023-06-22T00:39:42;17.50;99.90
52058;DHT22;38063;53.210;6.504;2023-06-22T00:42:08;17.50;99.90
52058;DHT22;38063;53.210;6.504;2023-06-22T00:44:35;17.50;99.90
52058;DHT22;38063;53.210;6.504;2023-06-22T00:47:01;17.40;99.90
52058;DHT22;38063;53.210;6.504;2023-06-22T00:49:27;17.40;99.90
52058;DHT22;38063;53.210;6.504;2023-06-22T00:51:53;17.40;99.90
52058;DHT22;38063;53.210;6.504;2023-06-22T00:54:19;17.40;99.90
52058;DHT22;38063;53.210;6.504;2023-06-22T00:56:52;17.30;99.90
52058;DHT22;38063;53.210;6.504;2023-06-22T00:59:20;17.30;99.90
52058;DHT22;38063;53.210;6.504;2023-06-22T01:01:46;17.40;99.90
52058;DHT22;38063;53.210;6.504;2023-06-22T01:04:12;17.30;99.90
52058;DHT22;38063;53.210;6.504;2023-06-22T01:06:47;17.30;99.90
52058;DHT22;38063;53.210;6.504;2023-06-22T01:09:21;17.30;99.90
52058;DHT22;38063;53.210;6.504;2023-06-22T01:12:00;17.20;99.90
52058;DHT22;38063;53.210;6.504;2023-06-22T01:14:41;17.20;99.90
52058;DHT22;38063;53.210;6.504;2023-06-22T01:17:08;17.20;99.90
52058;DHT22;38063;53.210;6.504;2023-06-22T01:19:44;17.20;99.90
52058;DHT22;38063;53.210;6.504;2023-06-22T01:22:15;17.10;99.90
52058;DHT22;38063;53.210;6.504;2023-06-22T01:25:13;17.10;99.90
52058;DHT22;38063;53.210;6.504;2023-06-22T01:27:53;17.10;99.90
52058;DHT22;38063;53.210;6.504;2023-06-22T01:30:22;17.10;99.90
52058;DHT22;38063;53.210;6.504;2023-06-22T01:32:51;17.00;99.90
52058;DHT22;38063;53.210;6.504;2023-06-22T01:35:18;17.00;99.90
52058;DHT22;38063;53.210;6.504;2023-06-22T01:37:44;17.00;99.90
52058;DHT22;38063;53.210;6.504;2023-06-22T01:40:11;16.90;99.90
52058;DHT22;38063;53.210;6.504;2023-06-22T01:42:37;16.90;99.90
52058;DHT22;38063;53.210;6.504;2023-06-22T01:45:04;16.80;99.90
52058;DHT22;38063;53.210;6.504;2023-06-22T01:47:31;16.80;99.90
52058;DHT22;38063;53.210;6.504;2023-06-22T01:49:57;16.70;99.90
52058;DHT22;38063;53.210;6.504;2023-06-22T01:52:23;16.70;99.90
52058;DHT22;38063;53.210;6.504;2023-06-22T01:54:49;16.70;99.90
52058;DHT22;38063;53.210;6.504;2023-06-22T01:57:14;16.60;99.90
52058;DHT22;38063;53.210;6.504;2023-06-22T02:00:02;16.60;99.90
52058;DHT22;38063;53.210;6.504;2023-06-22T02:02:36;16.60;99.90
52058;DHT22;38063;53.210;6.504;2023-06-22T02:05:09;16.60;99.90
52058;DHT22;38063;53.210;6.504;2023-06-22T02:07:52;16.60;99.90
52058;DHT22;38063;53.210;6.504;2023-06-22T02:10:20;16.50;99.90
52058;DHT22;38063;53.210;6.504;2023-06-22T02:12:46;16.50;99.90
52058;DHT22;38063;53.210;6.504;2023-06-22T02:15:13;16.50;99.90
52058;DHT22;38063;53.210;6.504;2023-06-22T02:17:40;16.50;99.90
52058;DHT22;38063;53.210;6.504;2023-06-22T02:20:13;16.50;99.90
52058;DHT22;38063;53.210;6.504;2023-06-22T02:22:38;16.50;99.90
52058;DHT22;38063;53.210;6.504;2023-06-22T02:25:04;16.40;99.90
52058;DHT22;38063;53.210;6.504;2023-06-22T02:27:30;16.50;99.90
52058;DHT22;38063;53.210;6.504;2023-06-22T02:29:56;16.50;99.90
52058;DHT22;38063;53.210;6.504;2023-06-22T02:32:22;16.50;99.90
52058;DHT22;38063;53.210;6.504;2023-06-22T02:34:48;16.50;99.90
52058;DHT22;38063;53.210;6.504;2023-06-22T02:37:14;16.50;99.90
52058;DHT22;38063;53.210;6.504;2023-06-22T02:39:40;16.40;99.90
52058;DHT22;38063;53.210;6.504;2023-06-22T02:42:06;16.40;99.90
52058;DHT22;38063;53.210;6.504;2023-06-22T02:44:32;16.40;99.90
52058;DHT22;38063;53.210;6.504;2023-06-22T02:46:58;16.40;99.90
52058;DHT22;38063;53.210;6.504;2023-06-22T02:49:23;16.40;99.90
52058;DHT22;38063;53.210;6.504;2023-06-22T02:51:49;16.40;99.90
52058;DHT22;38063;53.210;6.504;2023-06-22T02:54:15;16.40;99.90
52058;DHT22;38063;53.210;6.504;2023-06-22T02:56:42;16.40;99.90
52058;DHT22;38063;53.210;6.504;2023-06-22T02:59:10;16.40;99.90
52058;DHT22;38063;53.210;6.504;2023-06-22T03:01:36;16.30;99.90
52058;DHT22;38063;53.210;6.504;2023-06-22T03:04:09;16.40;99.90
52058;DHT22;38063;53.210;6.504;2023-06-22T03:06:35;16.30;99.90
52058;DHT22;38063;53.210;6.504;2023-06-22T03:09:03;16.30;99.90
52058;DHT22;38063;53.210;6.504;2023-06-22T03:11:33;16.30;99.90
52058;DHT22;38063;53.210;6.504;2023-06-22T03:14:00;16.30;99.90
52058;DHT22;38063;53.210;6.504;2023-06-22T03:16:26;16.30;99.90
52058;DHT22;38063;53.210;6.504;2023-06-22T03:18:52;16.40;99.90
52058;DHT22;38063;53.210;6.504;2023-06-22T03:21:22;16.30;99.90
52058;DHT22;38063;53.210;6.504;2023-06-22T03:23:48;16.30;99.90
52058;DHT22;38063;53.210;6.504;2023-06-22T03:26:17;16.30;99.90
52058;DHT22;38063;53.210;6.504;2023-06-22T03:28:43;16.30;99.90
52058;DHT22;38063;53.210;6.504;2023-06-22T03:31:09;16.20;99.90
52058;DHT22;38063;53.210;6.504;2023-06-22T03:33:34;16.20;99.90
52058;DHT22;38063;53.210;6.504;2023-06-22T03:36:00;16.20;99.90
52058;DHT22;38063;53.210;6.504;2023-06-22T03:38:26;16.20;99.90
52058;DHT22;38063;53.210;6.504;2023-06-22T03:40:53;16.10;99.90
52058;DHT22;38063;53.210;6.504;2023-06-22T03:43:18;16.10;99.90
52058;DHT22;38063;53.210;6.504;2023-06-22T03:45:44;16.10;99.90
52058;DHT22;38063;53.210;6.504;2023-06-22T03:48:12;16.10;99.90
52058;DHT22;38063;53.210;6.504;2023-06-22T03:50:38;16.10;99.90
52058;DHT22;38063;53.210;6.504;2023-06-22T03:53:04;16.10;99.90
52058;DHT22;38063;53.210;6.504;2023-06-22T03:55:29;16.10;99.90
52058;DHT22;38063;53.210;6.504;2023-06-22T03:57:55;16.20;99.90
52058;DHT22;38063;53.210;6.504;2023-06-22T04:00:23;16.20;99.90
52058;DHT22;38063;53.210;6.504;2023-06-22T04:02:49;16.20;99.90
52058;DHT22;38063;53.210;6.504;2023-06-22T04:05:15;16.20;99.90
52058;DHT22;38063;53.210;6.504;2023-06-22T04:07:44;16.20;99.90
52058;DHT22;38063;53.210;6.504;2023-06-22T04:10:10;16.20;99.90
52058;DHT22;38063;53.210;6.504;2023-06-22T04:12:35;16.30;99.90
52058;DHT22;38063;53.210;6.504;2023-06-22T04:15:01;16.30;99.90
52058;DHT22;38063;53.210;6.504;2023-06-22T04:17:27;16.40;99.90
52058;DHT22;38063;53.210;6.504;2023-06-22T04:19:53;16.30;99.90
52058;DHT22;38063;53.210;6.504;2023-06-22T04:22:18;16.40;99.90
52058;DHT22;38063;53.210;6.504;2023-06-22T04:24:44;16.40;99.90
52058;DHT22;38063;53.210;6.504;2023-06-22T04:27:10;16.40;99.90
52058;DHT22;38063;53.210;6.504;2023-06-22T04:29:36;16.40;99.90
52058;DHT22;38063;53.210;6.504;2023-06-22T04:32:01;16.40;99.90
52058;DHT22;38063;53.210;6.504;2023-06-22T04:34:30;16.50;99.90
52058;DHT22;38063;53.210;6.504;2023-06-22T04:36:57;16.50;99.90
52058;DHT22;38063;53.210;6.504;2023-06-22T04:39:23;16.60;99.90
52058;DHT22;38063;53.210;6.504;2023-06-22T04:41:49;16.60;99.90
52058;DHT22;38063;53.210;6.504;2023-06-22T04:44:18;16.70;99.90
52058;DHT22;38063;53.210;6.504;2023-06-22T04:46:50;16.70;99.90
52058;DHT22;38063;53.210;6.504;2023-06-22T04:49:20;16.70;99.90
52058;DHT22;38063;53.210;6.504;2023-06-22T04:51:46;16.70;99.90
52058;DHT22;38063;53.210;6.504;2023-06-22T04:54:11;16.80;99.90
52058;DHT22;38063;53.210;6.504;2023-06-22T04:56:37;16.80;99.90
52058;DHT22;38063;53.210;6.504;2023-06-22T04:59:03;16.90;99.90
52058;DHT22;38063;53.210;6.504;2023-06-22T05:01:29;16.90;99.90
52058;DHT22;38063;53.210;6.504;2023-06-22T05:03:57;16.90;99.90
52058;DHT22;38063;53.210;6.504;2023-06-22T05:06:24;17.00;99.90
52058;DHT22;38063;53.210;6.504;2023-06-22T05:08:59;17.00;99.90
52058;DHT22;38063;53.210;6.504;2023-06-22T05:11:28;17.10;99.90
52058;DHT22;38063;53.210;6.504;2023-06-22T05:13:55;17.20;99.90
52058;DHT22;38063;53.210;6.504;2023-06-22T05:16:21;17.20;99.90
52058;DHT22;38063;53.210;6.504;2023-06-22T05:18:54;17.30;99.90
52058;DHT22;38063;53.210;6.504;2023-06-22T05:21:25;17.30;99.90
52058;DHT22;38063;53.210;6.504;2023-06-22T05:23:51;17.40;99.90
52058;DHT22;38063;53.210;6.504;2023-06-22T05:26:18;17.40;99.90
52058;DHT22;38063;53.210;6.504;2023-06-22T05:28:45;17.50;99.90
52058;DHT22;38063;53.210;6.504;2023-06-22T05:31:13;17.60;99.90
52058;DHT22;38063;53.210;6.504;2023-06-22T05:33:39;17.70;99.90
52058;DHT22;38063;53.210;6.504;2023-06-22T05:36:05;17.90;99.90
52058;DHT22;38063;53.210;6.504;2023-06-22T05:38:30;18.00;99.90
52058;DHT22;38063;53.210;6.504;2023-06-22T05:40:56;18.10;99.90
52058;DHT22;38063;53.210;6.504;2023-06-22T05:43:22;18.30;99.90
52058;DHT22;38063;53.210;6.504;2023-06-22T05:45:47;18.50;99.90
52058;DHT22;38063;53.210;6.504;2023-06-22T05:48:13;18.70;99.90
52058;DHT22;38063;53.210;6.504;2023-06-22T05:50:39;18.80;99.90
52058;DHT22;38063;53.210;6.504;2023-06-22T05:53:04;19.00;99.90
52058;DHT22;38063;53.210;6.504;2023-06-22T05:55:32;19.10;99.90
52058;DHT22;38063;53.210;6.504;2023-06-22T05:57:58;19.10;99.90
52058;DHT22;38063;53.210;6.504;2023-06-22T06:00:23;19.30;99.90
52058;DHT22;38063;53.210;6.504;2023-06-22T06:02:49;19.40;99.90
52058;DHT22;38063;53.210;6.504;2023-06-22T06:05:15;19.50;99.90
52058;DHT22;38063;53.210;6.504;2023-06-22T06:07:45;19.60;99.90
52058;DHT22;38063;53.210;6.504;2023-06-22T06:10:11;19.80;99.90
52058;DHT22;38063;53.210;6.504;2023-06-22T06:12:36;19.90;99.90
52058;DHT22;38063;53.210;6.504;2023-06-22T06:15:03;20.00;99.90
52058;DHT22;38063;53.210;6.504;2023-06-22T06:17:29;20.10;99.90
52058;DHT22;38063;53.210;6.504;2023-06-22T06:19:54;20.20;99.90
52058;DHT22;38063;53.210;6.504;2023-06-22T06:22:20;20.40;99.90
52058;DHT22;38063;53.210;6.504;2023-06-22T06:24:47;20.50;99.90
52058;DHT22;38063;53.210;6.504;2023-06-22T06:27:13;20.50;99.90
52058;DHT22;38063;53.210;6.504;2023-06-22T06:29:39;20.60;99.90
52058;DHT22;38063;53.210;6.504;2023-06-22T06:32:05;20.80;99.90
52058;DHT22;38063;53.210;6.504;2023-06-22T06:34:31;20.80;99.90
52058;DHT22;38063;53.210;6.504;2023-06-22T06:36:57;20.90;99.90
52058;DHT22;38063;53.210;6.504;2023-06-22T06:39:22;21.00;99.90
52058;DHT22;38063;53.210;6.504;2023-06-22T06:41:48;21.10;99.90
52058;DHT22;38063;53.210;6.504;2023-06-22T06:44:14;21.30;99.90
52058;DHT22;38063;53.210;6.504;2023-06-22T06:46:39;21.60;99.90
52058;DHT22;38063;53.210;6.504;2023-06-22T06:49:05;21.70;99.90
52058;DHT22;38063;53.210;6.504;2023-06-22T06:51:30;21.90;99.90
52058;DHT22;38063;53.210;6.504;2023-06-22T06:53:56;21.90;99.90
52058;DHT22;38063;53.210;6.504;2023-06-22T06:56:22;22.00;99.90
52058;DHT22;38063;53.210;6.504;2023-06-22T06:58:50;22.10;99.90
52058;DHT22;38063;53.210;6.504;2023-06-22T07:01:15;22.20;99.90
52058;DHT22;38063;53.210;6.504;2023-06-22T07:03:41;22.30;99.90
52058;DHT22;38063;53.210;6.504;2023-06-22T07:06:08;22.30;99.90
52058;DHT22;38063;53.210;6.504;2023-06-22T07:08:34;22.40;99.90
52058;DHT22;38063;53.210;6.504;2023-06-22T07:11:01;22.40;99.90
52058;DHT22;38063;53.210;6.504;2023-06-22T07:13:27;22.50;99.90
52058;DHT22;38063;53.210;6.504;2023-06-22T07:15:53;22.70;99.90
52058;DHT22;38063;53.210;6.504;2023-06-22T07:18:19;22.90;99.90
52058;DHT22;38063;53.210;6.504;2023-06-22T07:20:45;23.10;99.90
52058;DHT22;38063;53.210;6.504;2023-06-22T07:23:10;23.30;99.90
52058;DHT22;38063;53.210;6.504;2023-06-22T07:25:36;23.40;99.90
52058;DHT22;38063;53.210;6.504;2023-06-22T07:28:04;23.40;99.90
52058;DHT22;38063;53.210;6.504;2023-06-22T07:30:31;23.50;99.90
52058;DHT22;38063;53.210;6.504;2023-06-22T07:32:58;23.70;99.90
52058;DHT22;38063;53.210;6.504;2023-06-22T07:35:24;23.90;99.90
52058;DHT22;38063;53.210;6.504;2023-06-22T07:37:50;24.10;99.90
52058;DHT22;38063;53.210;6.504;2023-06-22T07:40:16;24.30;99.90
52058;DHT22;38063;53.210;6.504;2023-06-22T07:42:41;24.40;99.90
52058;DHT22;38063;53.210;6.504;2023-06-22T07:45:07;24.50;99.90
52058;DHT22;38063;53.210;6.504;2023-06-22T07:47:34;24.60;99.90
52058;DHT22;38063;53.210;6.504;2023-06-22T07:50:01;24.60;99.90
52058;DHT22;38063;53.210;6.504;2023-06-22T07:52:28;24.70;99.90
52058;DHT22;38063;53.210;6.504;2023-06-22T07:54:54;24.80;99.90
52058;DHT22;38063;53.210;6.504;2023-06-22T07:57:20;25.00;99.90
52058;DHT22;38063;53.210;6.504;2023-06-22T07:59:46;25.10;99.90
52058;DHT22;38063;53.210;6.504;2023-06-22T08:02:12;25.10;99.90
52058;DHT22;38063;53.210;6.504;2023-06-22T08:04:39;25.20;99.90
52058;DHT22;38063;53.210;6.504;2023-06-22T08:07:05;25.30;99.90
52058;DHT22;38063;53.210;6.504;2023-06-22T08:09:32;25.40;99.90
52058;DHT22;38063;53.210;6.504;2023-06-22T08:11:58;25.40;99.90
52058;DHT22;38063;53.210;6.504;2023-06-22T08:14:29;25.60;99.90
52058;DHT22;38063;53.210;6.504;2023-06-22T08:16:55;25.60;99.90
52058;DHT22;38063;53.210;6.504;2023-06-22T08:19:20;25.70;99.90
52058;DHT22;38063;53.210;6.504;2023-06-22T08:21:46;25.70;99.90
52058;DHT22;38063;53.210;6.504;2023-06-22T08:24:12;25.70;99.90
52058;DHT22;38063;53.210;6.504;2023-06-22T08:26:38;25.60;99.90
52058;DHT22;38063;53.210;6.504;2023-06-22T08:29:04;25.70;99.90
52058;DHT22;38063;53.210;6.504;2023-06-22T08:31:31;25.70;99.90
52058;DHT22;38063;53.210;6.504;2023-06-22T08:33:59;25.80;99.90
52058;DHT22;38063;53.210;6.504;2023-06-22T08:36:24;25.90;99.90
52058;DHT22;38063;53.210;6.504;2023-06-22T08:38:51;26.00;99.90
52058;DHT22;38063;53.210;6.504;2023-06-22T08:41:18;26.10;99.90
52058;DHT22;38063;53.210;6.504;2023-06-22T08:43:44;26.30;99.90
52058;DHT22;38063;53.210;6.504;2023-06-22T08:46:13;26.40;99.90
52058;DHT22;38063;53.210;6.504;2023-06-22T08:48:39;26.70;99.90
52058;DHT22;38063;53.210;6.504;2023-06-22T08:51:04;26.90;99.90
52058;DHT22;38063;53.210;6.504;2023-06-22T08:53:30;27.00;99.30
52058;DHT22;38063;53.210;6.504;2023-06-22T08:55:55;27.10;98.80
52058;DHT22;38063;53.210;6.504;2023-06-22T08:58:21;27.30;98.40
52058;DHT22;38063;53.210;6.504;2023-06-22T09:00:48;27.30;97.80
52058;DHT22;38063;53.210;6.504;2023-06-22T09:03:14;27.30;97.60
52058;DHT22;38063;53.210;6.504;2023-06-22T09:05:40;27.30;97.30
52058;DHT22;38063;53.210;6.504;2023-06-22T09:08:05;27.10;96.80
52058;DHT22;38063;53.210;6.504;2023-06-22T09:10:31;27.00;96.40
52058;DHT22;38063;53.210;6.504;2023-06-22T09:12:57;26.90;96.50
52058;DHT22;38063;53.210;6.504;2023-06-22T09:15:23;26.90;96.60
52058;DHT22;38063;53.210;6.504;2023-06-22T09:17:49;26.90;96.80
52058;DHT22;38063;53.210;6.504;2023-06-22T09:20:15;26.90;96.70
52058;DHT22;38063;53.210;6.504;2023-06-22T09:22:41;27.00;96.50
52058;DHT22;38063;53.210;6.504;2023-06-22T09:25:07;26.90;96.50
52058;DHT22;38063;53.210;6.504;2023-06-22T09:27:33;26.90;96.00
52058;DHT22;38063;53.210;6.504;2023-06-22T09:29:58;26.90;96.20
52058;DHT22;38063;53.210;6.504;2023-06-22T09:32:25;26.60;96.10
52058;DHT22;38063;53.210;6.504;2023-06-22T09:34:51;26.50;96.00
52058;DHT22;38063;53.210;6.504;2023-06-22T09:37:17;26.70;96.40
52058;DHT22;38063;53.210;6.504;2023-06-22T09:39:43;26.90;96.20
52058;DHT22;38063;53.210;6.504;2023-06-22T09:42:08;26.90;96.20
52058;DHT22;38063;53.210;6.504;2023-06-22T09:44:34;27.00;96.30
52058;DHT22;38063;53.210;6.504;2023-06-22T09:47:00;27.00;96.40
52058;DHT22;38063;53.210;6.504;2023-06-22T09:49:25;27.20;96.20
52058;DHT22;38063;53.210;6.504;2023-06-22T09:51:51;27.00;95.60
52058;DHT22;38063;53.210;6.504;2023-06-22T09:54:17;27.00;95.50
52058;DHT22;38063;53.210;6.504;2023-06-22T09:56:43;26.80;95.70
52058;DHT22;38063;53.210;6.504;2023-06-22T09:59:09;26.80;95.70
52058;DHT22;38063;53.210;6.504;2023-06-22T10:01:35;27.10;95.70
52058;DHT22;38063;53.210;6.504;2023-06-22T10:04:02;27.30;95.20
52058;DHT22;38063;53.210;6.504;2023-06-22T10:06:28;27.30;94.70
52058;DHT22;38063;53.210;6.504;2023-06-22T10:08:53;27.50;94.60
52058;DHT22;38063;53.210;6.504;2023-06-22T10:11:19;27.50;94.50
52058;DHT22;38063;53.210;6.504;2023-06-22T10:13:45;27.70;94.50
52058;DHT22;38063;53.210;6.504;2023-06-22T10:16:10;27.90;94.00
52058;DHT22;38063;53.210;6.504;2023-06-22T10:18:36;27.70;94.00
52058;DHT22;38063;53.210;6.504;2023-06-22T10:21:02;27.90;94.10
52058;DHT22;38063;53.210;6.504;2023-06-22T10:23:27;28.20;94.00
52058;DHT22;38063;53.210;6.504;2023-06-22T10:25:53;28.10;93.40
52058;DHT22;38063;53.210;6.504;2023-06-22T10:28:19;28.00;93.00
52058;DHT22;38063;53.210;6.504;2023-06-22T10:30:44;27.90;92.70
52058;DHT22;38063;53.210;6.504;2023-06-22T10:33:11;28.00;93.10
52058;DHT22;38063;53.210;6.504;2023-06-22T10:35:37;28.10;92.90
52058;DHT22;38063;53.210;6.504;2023-06-22T10:38:04;27.90;92.70
52058;DHT22;38063;53.210;6.504;2023-06-22T10:40:29;27.90;92.60
52058;DHT22;38063;53.210;6.504;2023-06-22T10:42:55;27.90;92.40
52058;DHT22;38063;53.210;6.504;2023-06-22T10:45:21;28.00;92.60
52058;DHT22;38063;53.210;6.504;2023-06-22T10:47:47;27.90;92.60
52058;DHT22;38063;53.210;6.504;2023-06-22T10:50:13;27.80;92.60
52058;DHT22;38063;53.210;6.504;2023-06-22T10:52:39;27.90;92.50
52058;DHT22;38063;53.210;6.504;2023-06-22T10:55:07;28.10;92.40
52058;DHT22;38063;53.210;6.504;2023-06-22T10:57:33;28.30;92.50
52058;DHT22;38063;53.210;6.504;2023-06-22T10:59:59;28.20;92.10
52058;DHT22;38063;53.210;6.504;2023-06-22T11:02:24;28.10;91.70
52058;DHT22;38063;53.210;6.504;2023-06-22T11:04:50;28.30;92.40
52058;DHT22;38063;53.210;6.504;2023-06-22T11:07:16;28.10;92.00
52058;DHT22;38063;53.210;6.504;2023-06-22T11:09:45;27.90;92.20
52058;DHT22;38063;53.210;6.504;2023-06-22T11:12:11;27.90;91.70
52058;DHT22;38063;53.210;6.504;2023-06-22T11:14:36;27.90;91.80
52058;DHT22;38063;53.210;6.504;2023-06-22T11:17:02;28.20;92.10
52058;DHT22;38063;53.210;6.504;2023-06-22T11:19:27;28.40;91.80
52058;DHT22;38063;53.210;6.504;2023-06-22T11:21:53;28.50;91.80
52058;DHT22;38063;53.210;6.504;2023-06-22T11:24:19;28.30;91.10
52058;DHT22;38063;53.210;6.504;2023-06-22T11:26:44;28.20;91.00
52058;DHT22;38063;53.210;6.504;2023-06-22T11:29:10;27.90;90.80
52058;DHT22;38063;53.210;6.504;2023-06-22T11:31:36;27.60;90.90
52058;DHT22;38063;53.210;6.504;2023-06-22T11:34:02;27.50;91.60
52058;DHT22;38063;53.210;6.504;2023-06-22T11:36:29;27.40;92.10
52058;DHT22;38063;53.210;6.504;2023-06-22T11:38:54;27.40;92.00
52058;DHT22;38063;53.210;6.504;2023-06-22T11:41:20;27.40;92.30
52058;DHT22;38063;53.210;6.504;2023-06-22T11:43:46;27.30;92.30
52058;DHT22;38063;53.210;6.504;2023-06-22T11:46:11;27.30;92.50
52058;DHT22;38063;53.210;6.504;2023-06-22T11:48:37;27.20;92.60
52058;DHT22;38063;53.210;6.504;2023-06-22T11:51:03;27.20;92.70
52058;DHT22;38063;53.210;6.504;2023-06-22T11:53:29;27.20;92.40
52058;DHT22;38063;53.210;6.504;2023-06-22T11:55:55;27.30;92.80
52058;DHT22;38063;53.210;6.504;2023-06-22T11:58:22;27.30;92.70
52058;DHT22;38063;53.210;6.504;2023-06-22T12:00:48;27.20;92.80
52058;DHT22;38063;53.210;6.504;2023-06-22T12:03:14;27.00;93.10
52058;DHT22;38063;53.210;6.504;2023-06-22T12:05:40;27.20;93.50
52058;DHT22;38063;53.210;6.504;2023-06-22T12:08:06;27.20;93.40
52058;DHT22;38063;53.210;6.504;2023-06-22T12:10:32;27.30;93.70
52058;DHT22;38063;53.210;6.504;2023-06-22T12:12:57;27.30;93.90
52058;DHT22;38063;53.210;6.504;2023-06-22T12:15:25;27.10;93.50
52058;DHT22;38063;53.210;6.504;2023-06-22T12:17:51;27.00;93.40
52058;DHT22;38063;53.210;6.504;2023-06-22T12:20:16;26.90;93.60
52058;DHT22;38063;53.210;6.504;2023-06-22T12:22:43;26.80;93.70
52058;DHT22;38063;53.210;6.504;2023-06-22T12:25:09;26.70;93.60
52058;DHT22;38063;53.210;6.504;2023-06-22T12:27:35;26.60;93.80
52058;DHT22;38063;53.210;6.504;2023-06-22T12:30:02;26.50;93.70
52058;DHT22;38063;53.210;6.504;2023-06-22T12:32:28;26.50;93.80
52058;DHT22;38063;53.210;6.504;2023-06-22T12:34:53;26.50;93.90
52058;DHT22;38063;53.210;6.504;2023-06-22T12:37:19;26.60;94.10
52058;DHT22;38063;53.210;6.504;2023-06-22T12:39:45;26.50;94.20
52058;DHT22;38063;53.210;6.504;2023-06-22T12:42:10;26.40;94.00
52058;DHT22;38063;53.210;6.504;2023-06-22T12:44:40;26.40;94.20
52058;DHT22;38063;53.210;6.504;2023-06-22T12:47:06;26.10;94.10
52058;DHT22;38063;53.210;6.504;2023-06-22T12:49:37;26.00;94.50
52058;DHT22;38063;53.210;6.504;2023-06-22T12:52:03;26.00;95.00
52058;DHT22;38063;53.210;6.504;2023-06-22T12:54:29;26.00;95.10
52058;DHT22;38063;53.210;6.504;2023-06-22T12:56:55;25.90;94.90
52058;DHT22;38063;53.210;6.504;2023-06-22T12:59:21;25.80;95.10
52058;DHT22;38063;53.210;6.504;2023-06-22T13:01:47;25.70;95.00
52058;DHT22;38063;53.210;6.504;2023-06-22T13:04:12;25.60;95.10
52058;DHT22;38063;53.210;6.504;2023-06-22T13:06:46;25.50;95.20
52058;DHT22;38063;53.210;6.504;2023-06-22T13:09:15;25.40;95.10
52058;DHT22;38063;53.210;6.504;2023-06-22T13:11:42;25.40;95.30
52058;DHT22;38063;53.210;6.504;2023-06-22T13:14:08;25.30;95.30
52058;DHT22;38063;53.210;6.504;2023-06-22T13:16:34;25.20;95.30
52058;DHT22;38063;53.210;6.504;2023-06-22T13:18:59;25.20;95.40
52058;DHT22;38063;53.210;6.504;2023-06-22T13:21:25;25.20;95.40
52058;DHT22;38063;53.210;6.504;2023-06-22T13:23:51;25.10;95.40
52058;DHT22;38063;53.210;6.504;2023-06-22T13:26:17;25.10;95.30
52058;DHT22;38063;53.210;6.504;2023-06-22T13:28:43;25.00;95.20
52058;DHT22;38063;53.210;6.504;2023-06-22T13:31:08;25.00;95.40
52058;DHT22;38063;53.210;6.504;2023-06-22T13:33:34;25.10;95.30
52058;DHT22;38063;53.210;6.504;2023-06-22T13:35:59;25.10;95.20
52058;DHT22;38063;53.210;6.504;2023-06-22T13:38:25;25.00;95.20
52058;DHT22;38063;53.210;6.504;2023-06-22T13:40:51;25.10;95.50
52058;DHT22;38063;53.210;6.504;2023-06-22T13:43:17;25.10;95.10
52058;DHT22;38063;53.210;6.504;2023-06-22T13:45:42;25.00;95.10
52058;DHT22;38063;53.210;6.504;2023-06-22T13:48:09;25.00;94.80
52058;DHT22;38063;53.210;6.504;2023-06-22T13:50:35;24.80;94.30
52058;DHT22;38063;53.210;6.504;2023-06-22T13:53:01;24.70;94.30
52058;DHT22;38063;53.210;6.504;2023-06-22T13:55:26;24.60;94.40
52058;DHT22;38063;53.210;6.504;2023-06-22T13:57:52;24.60;94.30
52058;DHT22;38063;53.210;6.504;2023-06-22T14:00:18;24.50;94.20
52058;DHT22;38063;53.210;6.504;2023-06-22T14:02:44;24.30;94.30
52058;DHT22;38063;53.210;6.504;2023-06-22T14:05:10;24.30;94.40
52058;DHT22;38063;53.210;6.504;2023-06-22T14:07:36;24.10;94.40
52058;DHT22;38063;53.210;6.504;2023-06-22T14:10:03;24.00;94.40
52058;DHT22;38063;53.210;6.504;2023-06-22T14:12:29;24.00;94.50
52058;DHT22;38063;53.210;6.504;2023-06-22T14:14:55;24.00;94.80
52058;DHT22;38063;53.210;6.504;2023-06-22T14:17:20;23.80;94.60
52058;DHT22;38063;53.210;6.504;2023-06-22T14:19:52;23.70;94.90
52058;DHT22;38063;53.210;6.504;2023-06-22T14:22:21;23.60;95.10
52058;DHT22;38063;53.210;6.504;2023-06-22T14:24:48;23.50;95.20
52058;DHT22;38063;53.210;6.504;2023-06-22T14:27:14;23.50;95.40
52058;DHT22;38063;53.210;6.504;2023-06-22T14:29:40;23.50;95.50
52058;DHT22;38063;53.210;6.504;2023-06-22T14:32:06;23.50;95.70
52058;DHT22;38063;53.210;6.504;2023-06-22T14:34:33;23.50;95.70
52058;DHT22;38063;53.210;6.504;2023-06-22T14:37:02;23.50;95.70
52058;DHT22;38063;53.210;6.504;2023-06-22T14:39:27;23.50;95.70
52058;DHT22;38063;53.210;6.504;2023-06-22T14:41:53;23.30;95.70
52058;DHT22;38063;53.210;6.504;2023-06-22T14:44:19;23.30;96.00
52058;DHT22;38063;53.210;6.504;2023-06-22T14:46:44;23.20;96.30
52058;DHT22;38063;53.210;6.504;2023-06-22T14:49:10;23.20;96.00
52058;DHT22;38063;53.210;6.504;2023-06-22T14:51:36;23.20;95.80
52058;DHT22;38063;53.210;6.504;2023-06-22T14:54:01;23.10;95.20
52058;DHT22;38063;53.210;6.504;2023-06-22T14:56:27;23.10;94.80
52058;DHT22;38063;53.210;6.504;2023-06-22T14:58:53;23.00;94.80
52058;DHT22;38063;53.210;6.504;2023-06-22T15:01:18;23.00;94.80
52058;DHT22;38063;53.210;6.504;2023-06-22T15:03:44;22.90;94.80
52058;DHT22;38063;53.210;6.504;2023-06-22T15:06:10;22.80;94.90
52058;DHT22;38063;53.210;6.504;2023-06-22T15:08:39;22.80;95.20
52058;DHT22;38063;53.210;6.504;2023-06-22T15:11:05;22.80;95.40
52058;DHT22;38063;53.210;6.504;2023-06-22T15:13:31;22.70;95.10
52058;DHT22;38063;53.210;6.504;2023-06-22T15:16:01;22.70;95.10
52058;DHT22;38063;53.210;6.504;2023-06-22T15:18:26;22.70;95.30
52058;DHT22;38063;53.210;6.504;2023-06-22T15:20:52;22.70;95.60
52058;DHT22;38063;53.210;6.504;2023-06-22T15:23:18;22.70;95.60
52058;DHT22;38063;53.210;6.504;2023-06-22T15:25:44;22.60;95.40